sensor_id;sensor_type;location;lat;lon;timestamp;temperature;humidity
34008;DHT22;41085;51.594;7.138;2022-10-22T01:04:27;19.60;94.60
34008;DHT22;41085;51.594;7.138;2022-10-22T01:08:50;19.60;94.80
34008;DHT22;41085;51.594;7.138;2022-10-22T13:26:52;20.10;94.90
34008;DHT22;41085;51.594;7.138;2022-10-22T13:30:56;20.30;95.00
34008;DHT22;41085;51.594;7.138;2022-10-22T13:34:59;20.10;94.90
34008;DHT22;41085;51.594;7.138;2022-10-22T13:39:01;20.60;95.50
34008;DHT22;41085;51.594;7.138;2022-10-22T13:43:01;20.40;95.00
34008;DHT22;41085;51.594;7.138;2022-10-22T13:47:02;20.10;95.10
34008;DHT22;41085;51.594;7.138;2022-10-22T13:51:05;20.10;95.00
34008;DHT22;41085;51.594;7.138;2022-10-22T13:55:15;20.10;94.90
34008;DHT22;41085;51.594;7.138;2022-10-22T13:59:16;20.10;95.00
34008;DHT22;41085;51.594;7.138;2022-10-22T14:03:19;21.20;95.30
34008;DHT22;41085;51.594;7.138;2022-10-22T14:07:20;20.80;95.10
34008;DHT22;41085;51.594;7.138;2022-10-22T14:11:21;20.70;95.10
34008;DHT22;41085;51.594;7.138;2022-10-22T14:15:23;20.40;95.10
34008;DHT22;41085;51.594;7.138;2022-10-22T14:19:24;20.10;95.00
34008;DHT22;41085;51.594;7.138;2022-10-22T14:23:27;20.20;95.00
34008;DHT22;41085;51.594;7.138;2022-10-22T14:27:28;20.20;94.90
34008;DHT22;41085;51.594;7.138;2022-10-22T14:31:29;20.90;95.20
34008;DHT22;41085;51.594;7.138;2022-10-22T14:35:30;20.20;95.00
34008;DHT22;41085;51.594;7.138;2022-10-22T14:39:30;20.10;94.90
34008;DHT22;41085;51.594;7.138;2022-10-22T14:43:31;20.40;95.10
34008;DHT22;41085;51.594;7.138;2022-10-22T14:47:32;21.20;95.30
34008;DHT22;41085;51.594;7.138;2022-10-22T14:51:32;20.10;94.90
34008;DHT22;41085;51.594;7.138;2022-10-22T14:55:33;20.10;94.50
34008;DHT22;41085;51.594;7.138;2022-10-22T14:59:34;20.20;94.70
34008;DHT22;41085;51.594;7.138;2022-10-22T15:03:35;20.10;94.80
34008;DHT22;41085;51.594;7.138;2022-10-22T15:07:36;20.20;94.80
34008;DHT22;41085;51.594;7.138;2022-10-22T15:11:37;20.00;94.70
34008;DHT22;41085;51.594;7.138;2022-10-22T15:15:41;20.00;94.70
34008;DHT22;41085;51.594;7.138;2022-10-22T15:19:41;20.30;94.80
34008;DHT22;41085;51.594;7.138;2022-10-22T15:23:45;20.50;94.80
34008;DHT22;41085;51.594;7.138;2022-10-22T15:27:46;20.40;94.90
34008;DHT22;41085;51.594;7.138;2022-10-22T15:31:49;20.20;95.00
34008;DHT22;41085;51.594;7.138;2022-10-22T15:35:50;21.40;95.20
34008;DHT22;41085;51.594;7.138;2022-10-22T15:39:50;21.10;95.20
34008;DHT22;41085;51.594;7.138;2022-10-22T15:43:51;20.60;95.20
34008;DHT22;41085;51.594;7.138;2022-10-22T15:47:52;21.00;95.20
34008;DHT22;41085;51.594;7.138;2022-10-22T15:51:53;20.20;95.10
34008;DHT22;41085;51.594;7.138;2022-10-22T15:55:54;20.20;95.00
34008;DHT22;41085;51.594;7.138;2022-10-22T15:59:54;21.00;95.20
34008;DHT22;41085;51.594;7.138;2022-10-22T16:03:55;20.50;95.20
34008;DHT22;41085;51.594;7.138;2022-10-22T16:08:04;20.30;95.20
34008;DHT22;41085;51.594;7.138;2022-10-22T16:12:05;20.60;95.30
34008;DHT22;41085;51.594;7.138;2022-10-22T16:16:06;20.10;95.10
34008;DHT22;41085;51.594;7.138;2022-10-22T16:20:07;20.20;95.10
34008;DHT22;41085;51.594;7.138;2022-10-22T16:24:08;20.20;95.00
34008;DHT22;41085;51.594;7.138;2022-10-22T16:28:10;20.10;95.00
34008;DHT22;41085;51.594;7.138;2022-10-22T16:32:11;20.20;95.00
34008;DHT22;41085;51.594;7.138;2022-10-22T16:36:14;20.10;95.00
34008;DHT22;41085;51.594;7.138;2022-10-22T16:40:17;21.10;95.20
34008;DHT22;41085;51.594;7.138;2022-10-22T16:44:17;20.00;95.00
34008;DHT22;41085;51.594;7.138;2022-10-22T16:48:18;20.20;95.00
34008;DHT22;41085;51.594;7.138;2022-10-22T16:52:18;20.90;95.10
34008;DHT22;41085;51.594;7.138;2022-10-22T16:56:19;20.40;95.00
34008;DHT22;41085;51.594;7.138;2022-10-22T17:00:20;20.00;94.80
34008;DHT22;41085;51.594;7.138;2022-10-22T17:04:22;20.00;94.80
34008;DHT22;41085;51.594;7.138;2022-10-22T17:08:22;20.10;94.80
34008;DHT22;41085;51.594;7.138;2022-10-22T17:12:23;19.90;94.80
34008;DHT22;41085;51.594;7.138;2022-10-22T17:16:24;20.00;94.80
34008;DHT22;41085;51.594;7.138;2022-10-22T17:20:24;20.10;94.80
34008;DHT22;41085;51.594;7.138;2022-10-22T17:24:25;21.10;95.10
34008;DHT22;41085;51.594;7.138;2022-10-22T17:28:27;19.90;94.70
34008;DHT22;41085;51.594;7.138;2022-10-22T17:32:28;19.90;94.70
34008;DHT22;41085;51.594;7.138;2022-10-22T17:36:30;20.10;94.80
34008;DHT22;41085;51.594;7.138;2022-10-22T17:40:31;19.90;94.60
34008;DHT22;41085;51.594;7.138;2022-10-22T17:44:31;20.50;94.90
34008;DHT22;41085;51.594;7.138;2022-10-22T17:48:32;19.90;94.70
34008;DHT22;41085;51.594;7.138;2022-10-22T17:52:34;19.90;94.60
34008;DHT22;41085;51.594;7.138;2022-10-22T17:56:35;20.00;94.70
34008;DHT22;41085;51.594;7.138;2022-10-22T18:00:36;21.20;95.00
34008;DHT22;41085;51.594;7.138;2022-10-22T18:04:37;20.50;94.80
34008;DHT22;41085;51.594;7.138;2022-10-22T18:08:37;20.00;94.70
34008;DHT22;41085;51.594;7.138;2022-10-22T18:12:38;21.00;94.90
34008;DHT22;41085;51.594;7.138;2022-10-22T18:16:38;19.90;94.60
34008;DHT22;41085;51.594;7.138;2022-10-22T18:20:39;20.20;94.70
34008;DHT22;41085;51.594;7.138;2022-10-22T18:24:40;19.90;94.60
34008;DHT22;41085;51.594;7.138;2022-10-22T18:28:40;19.80;94.50
34008;DHT22;41085;51.594;7.138;2022-10-22T18:32:41;19.90;94.50
34008;DHT22;41085;51.594;7.138;2022-10-22T18:36:41;20.00;94.60
34008;DHT22;41085;51.594;7.138;2022-10-22T18:40:45;21.40;94.90
34008;DHT22;41085;51.594;7.138;2022-10-22T18:44:46;19.90;94.60
34008;DHT22;41085;51.594;7.138;2022-10-22T18:48:47;19.70;94.50
34008;DHT22;41085;51.594;7.138;2022-10-22T18:52:47;19.80;94.60
34008;DHT22;41085;51.594;7.138;2022-10-22T18:56:48;20.30;94.60
34008;DHT22;41085;51.594;7.138;2022-10-22T19:00:49;20.40;94.60
34008;DHT22;41085;51.594;7.138;2022-10-22T19:04:50;19.90;94.50
34008;DHT22;41085;51.594;7.138;2022-10-22T19:08:50;19.50;94.40
34008;DHT22;41085;51.594;7.138;2022-10-22T19:12:51;19.90;94.50
34008;DHT22;41085;51.594;7.138;2022-10-22T19:16:51;20.30;94.60
34008;DHT22;41085;51.594;7.138;2022-10-22T19:20:57;20.00;94.50
34008;DHT22;41085;51.594;7.138;2022-10-22T19:24:58;20.70;94.60
